sensor_id;sensor_type;location;lat;lon;timestamp;P1;durP1;ratioP1;P2;durP2;ratioP2
69319;SDS011;56467;53.502;49.248;2023-09-19T00:00:37;17.05;;;10.90;;
69319;SDS011;56467;53.502;49.248;2023-09-19T00:03:05;15.55;;;10.52;;
69319;SDS011;56467;53.502;49.248;2023-09-19T00:05:33;16.02;;;10.75;;
69319;SDS011;56467;53.502;49.248;2023-09-19T00:08:00;15.85;;;10.07;;
69319;SDS011;56467;53.502;49.248;2023-09-19T00:10:26;16.48;;;10.43;;
69319;SDS011;56467;53.502;49.248;2023-09-19T00:12:56;15.18;;;10.30;;
69319;SDS011;56467;53.502;49.248;2023-09-19T00:15:25;15.20;;;10.40;;
69319;SDS011;56467;53.502;49.248;2023-09-19T00:17:56;15.50;;;10.13;;
69319;SDS011;56467;53.502;49.248;2023-09-19T00:20:22;14.93;;;9.88;;
69319;SDS011;56467;53.502;49.248;2023-09-19T00:22:49;15.10;;;10.48;;
69319;SDS011;56467;53.502;49.248;2023-09-19T00:25:19;13.70;;;9.57;;
69319;SDS011;56467;53.502;49.248;2023-09-19T00:27:45;15.63;;;10.55;;
69319;SDS011;56467;53.502;49.248;2023-09-19T00:30:16;13.75;;;9.30;;
69319;SDS011;56467;53.502;49.248;2023-09-19T00:32:48;14.27;;;9.43;;
69319;SDS011;56467;53.502;49.248;2023-09-19T00:35:19;15.75;;;9.90;;
69319;SDS011;56467;53.502;49.248;2023-09-19T00:37:52;15.30;;;9.77;;
69319;SDS011;56467;53.502;49.248;2023-09-19T00:40:19;16.25;;;10.05;;
69319;SDS011;56467;53.502;49.248;2023-09-19T00:42:46;15.25;;;9.75;;
69319;SDS011;56467;53.502;49.248;2023-09-19T00:45:14;13.75;;;9.10;;
69319;SDS011;56467;53.502;49.248;2023-09-19T00:47:42;15.02;;;9.68;;
69319;SDS011;56467;53.502;49.248;2023-09-19T00:50:09;15.75;;;9.70;;
69319;SDS011;56467;53.502;49.248;2023-09-19T00:52:38;13.98;;;9.32;;
69319;SDS011;56467;53.502;49.248;2023-09-19T00:55:05;14.10;;;9.60;;
69319;SDS011;56467;53.502;49.248;2023-09-19T00:57:32;14.27;;;9.27;;
69319;SDS011;56467;53.502;49.248;2023-09-19T00:59:59;12.85;;;8.82;;
69319;SDS011;56467;53.502;49.248;2023-09-19T01:02:30;13.40;;;9.20;;
69319;SDS011;56467;53.502;49.248;2023-09-19T01:04:57;13.27;;;9.30;;
69319;SDS011;56467;53.502;49.248;2023-09-19T01:07:23;12.82;;;9.30;;
69319;SDS011;56467;53.502;49.248;2023-09-19T01:09:49;13.55;;;8.80;;
69319;SDS011;56467;53.502;49.248;2023-09-19T01:12:17;12.73;;;9.13;;
69319;SDS011;56467;53.502;49.248;2023-09-19T01:14:54;14.25;;;9.25;;
69319;SDS011;56467;53.502;49.248;2023-09-19T01:17:35;13.65;;;9.10;;
69319;SDS011;56467;53.502;49.248;2023-09-19T01:31:12;12.98;;;8.52;;
69319;SDS011;56467;53.502;49.248;2023-09-19T01:36:29;13.75;;;8.65;;
69319;SDS011;56467;53.502;49.248;2023-09-19T01:38:59;11.70;;;8.38;;
69319;SDS011;56467;53.502;49.248;2023-09-19T01:41:51;13.43;;;8.88;;
69319;SDS011;56467;53.502;49.248;2023-09-19T01:52:48;13.38;;;8.32;;
69319;SDS011;56467;53.502;49.248;2023-09-19T01:55:20;12.57;;;8.10;;
69319;SDS011;56467;53.502;49.248;2023-09-19T02:00:48;11.88;;;7.97;;
69319;SDS011;56467;53.502;49.248;2023-09-19T02:03:16;12.23;;;8.07;;
69319;SDS011;56467;53.502;49.248;2023-09-19T02:05:48;12.05;;;7.93;;
69319;SDS011;56467;53.502;49.248;2023-09-19T02:08:18;11.75;;;8.00;;
69319;SDS011;56467;53.502;49.248;2023-09-19T02:10:45;11.85;;;7.88;;
69319;SDS011;56467;53.502;49.248;2023-09-19T02:13:17;12.90;;;7.68;;
69319;SDS011;56467;53.502;49.248;2023-09-19T02:15:49;12.55;;;7.57;;
69319;SDS011;56467;53.502;49.248;2023-09-19T02:18:14;10.98;;;7.57;;
69319;SDS011;56467;53.502;49.248;2023-09-19T02:20:41;10.50;;;7.35;;
69319;SDS011;56467;53.502;49.248;2023-09-19T02:23:07;11.10;;;7.47;;
69319;SDS011;56467;53.502;49.248;2023-09-19T02:25:33;11.00;;;7.35;;
69319;SDS011;56467;53.502;49.248;2023-09-19T02:28:00;11.63;;;6.95;;
69319;SDS011;56467;53.502;49.248;2023-09-19T02:30:28;12.02;;;7.43;;
69319;SDS011;56467;53.502;49.248;2023-09-19T02:32:55;12.60;;;7.70;;
69319;SDS011;56467;53.502;49.248;2023-09-19T02:35:21;11.35;;;7.38;;
69319;SDS011;56467;53.502;49.248;2023-09-19T02:37:47;11.68;;;7.78;;
69319;SDS011;56467;53.502;49.248;2023-09-19T02:40:14;10.20;;;6.95;;
69319;SDS011;56467;53.502;49.248;2023-09-19T02:42:53;11.48;;;7.20;;
69319;SDS011;56467;53.502;49.248;2023-09-19T02:45:20;10.73;;;7.43;;
69319;SDS011;56467;53.502;49.248;2023-09-19T02:47:46;10.43;;;7.13;;
69319;SDS011;56467;53.502;49.248;2023-09-19T02:50:12;11.40;;;6.85;;
69319;SDS011;56467;53.502;49.248;2023-09-19T02:52:44;9.63;;;6.90;;
69319;SDS011;56467;53.502;49.248;2023-09-19T02:55:13;9.63;;;6.55;;
69319;SDS011;56467;53.502;49.248;2023-09-19T02:57:47;11.52;;;7.10;;
69319;SDS011;56467;53.502;49.248;2023-09-19T03:00:13;11.63;;;6.70;;
69319;SDS011;56467;53.502;49.248;2023-09-19T03:02:39;10.68;;;6.82;;
69319;SDS011;56467;53.502;49.248;2023-09-19T03:05:06;10.25;;;6.72;;
69319;SDS011;56467;53.502;49.248;2023-09-19T03:07:33;9.50;;;6.75;;
69319;SDS011;56467;53.502;49.248;2023-09-19T03:09:59;10.13;;;6.75;;
69319;SDS011;56467;53.502;49.248;2023-09-19T03:12:27;9.35;;;6.25;;
69319;SDS011;56467;53.502;49.248;2023-09-19T03:14:53;9.13;;;6.35;;
69319;SDS011;56467;53.502;49.248;2023-09-19T03:17:20;11.20;;;6.60;;
69319;SDS011;56467;53.502;49.248;2023-09-19T03:19:46;9.77;;;6.03;;
69319;SDS011;56467;53.502;49.248;2023-09-19T03:22:13;9.85;;;6.75;;
69319;SDS011;56467;53.502;49.248;2023-09-19T03:24:39;10.52;;;6.13;;
69319;SDS011;56467;53.502;49.248;2023-09-19T03:27:08;10.07;;;6.20;;
69319;SDS011;56467;53.502;49.248;2023-09-19T03:29:35;10.68;;;6.20;;
69319;SDS011;56467;53.502;49.248;2023-09-19T03:32:01;10.18;;;6.38;;
69319;SDS011;56467;53.502;49.248;2023-09-19T03:34:27;10.40;;;6.20;;
69319;SDS011;56467;53.502;49.248;2023-09-19T03:36:52;9.07;;;5.80;;
69319;SDS011;56467;53.502;49.248;2023-09-19T03:39:18;7.78;;;5.75;;
69319;SDS011;56467;53.502;49.248;2023-09-19T03:41:44;7.18;;;5.40;;
69319;SDS011;56467;53.502;49.248;2023-09-19T03:44:10;8.27;;;5.75;;
69319;SDS011;56467;53.502;49.248;2023-09-19T03:46:35;8.77;;;5.72;;
69319;SDS011;56467;53.502;49.248;2023-09-19T03:49:01;9.70;;;5.97;;
69319;SDS011;56467;53.502;49.248;2023-09-19T03:51:28;9.18;;;5.90;;
69319;SDS011;56467;53.502;49.248;2023-09-19T03:53:53;8.52;;;5.40;;
69319;SDS011;56467;53.502;49.248;2023-09-19T03:56:19;7.55;;;5.32;;
69319;SDS011;56467;53.502;49.248;2023-09-19T03:58:44;9.30;;;5.60;;
69319;SDS011;56467;53.502;49.248;2023-09-19T04:01:10;8.55;;;5.82;;
69319;SDS011;56467;53.502;49.248;2023-09-19T04:03:36;8.13;;;5.75;;
69319;SDS011;56467;53.502;49.248;2023-09-19T04:06:12;8.02;;;5.32;;
69319;SDS011;56467;53.502;49.248;2023-09-19T04:08:41;9.02;;;5.40;;
69319;SDS011;56467;53.502;49.248;2023-09-19T04:11:08;8.85;;;5.40;;
69319;SDS011;56467;53.502;49.248;2023-09-19T04:13:33;7.25;;;5.22;;
69319;SDS011;56467;53.502;49.248;2023-09-19T04:15:59;7.90;;;5.32;;
69319;SDS011;56467;53.502;49.248;2023-09-19T04:18:25;8.32;;;5.20;;
69319;SDS011;56467;53.502;49.248;2023-09-19T04:20:51;7.03;;;5.00;;
69319;SDS011;56467;53.502;49.248;2023-09-19T04:23:17;6.95;;;5.18;;
69319;SDS011;56467;53.502;49.248;2023-09-19T04:25:45;8.90;;;5.40;;
69319;SDS011;56467;53.502;49.248;2023-09-19T04:28:10;6.63;;;4.93;;
69319;SDS011;56467;53.502;49.248;2023-09-19T04:30:39;7.60;;;5.00;;
69319;SDS011;56467;53.502;49.248;2023-09-19T04:33:07;8.45;;;5.22;;
69319;SDS011;56467;53.502;49.248;2023-09-19T04:35:33;7.75;;;5.18;;
69319;SDS011;56467;53.502;49.248;2023-09-19T04:38:00;7.93;;;5.47;;
69319;SDS011;56467;53.502;49.248;2023-09-19T04:40:26;8.38;;;5.18;;
69319;SDS011;56467;53.502;49.248;2023-09-19T04:42:55;7.10;;;5.22;;
69319;SDS011;56467;53.502;49.248;2023-09-19T04:45:25;8.27;;;5.22;;
69319;SDS011;56467;53.502;49.248;2023-09-19T04:47:52;8.07;;;4.70;;
69319;SDS011;56467;53.502;49.248;2023-09-19T04:50:18;6.90;;;4.47;;
69319;SDS011;56467;53.502;49.248;2023-09-19T04:52:46;7.90;;;5.10;;
69319;SDS011;56467;53.502;49.248;2023-09-19T04:55:16;6.63;;;4.55;;
69319;SDS011;56467;53.502;49.248;2023-09-19T04:57:49;7.25;;;4.78;;
69319;SDS011;56467;53.502;49.248;2023-09-19T05:00:19;7.00;;;4.68;;
69319;SDS011;56467;53.502;49.248;2023-09-19T05:02:49;6.53;;;4.45;;
69319;SDS011;56467;53.502;49.248;2023-09-19T05:05:16;7.55;;;4.40;;
69319;SDS011;56467;53.502;49.248;2023-09-19T05:07:44;6.85;;;4.70;;
69319;SDS011;56467;53.502;49.248;2023-09-19T05:10:10;6.90;;;4.75;;
69319;SDS011;56467;53.502;49.248;2023-09-19T05:12:38;6.82;;;4.90;;
69319;SDS011;56467;53.502;49.248;2023-09-19T05:15:04;5.93;;;4.30;;
69319;SDS011;56467;53.502;49.248;2023-09-19T05:17:32;6.30;;;4.47;;
69319;SDS011;56467;53.502;49.248;2023-09-19T05:20:01;6.10;;;4.22;;
69319;SDS011;56467;53.502;49.248;2023-09-19T05:23:04;6.30;;;4.55;;
69319;SDS011;56467;53.502;49.248;2023-09-19T05:25:34;6.53;;;4.47;;
69319;SDS011;56467;53.502;49.248;2023-09-19T05:28:05;5.88;;;4.40;;
69319;SDS011;56467;53.502;49.248;2023-09-19T05:30:32;6.65;;;4.18;;
69319;SDS011;56467;53.502;49.248;2023-09-19T05:32:58;7.47;;;4.40;;
69319;SDS011;56467;53.502;49.248;2023-09-19T05:35:24;6.75;;;4.20;;
69319;SDS011;56467;53.502;49.248;2023-09-19T05:37:51;6.57;;;4.55;;
69319;SDS011;56467;53.502;49.248;2023-09-19T05:40:18;5.35;;;3.95;;
69319;SDS011;56467;53.502;49.248;2023-09-19T05:42:44;5.65;;;3.72;;
69319;SDS011;56467;53.502;49.248;2023-09-19T05:45:11;5.60;;;4.00;;
69319;SDS011;56467;53.502;49.248;2023-09-19T05:47:44;5.25;;;4.00;;
69319;SDS011;56467;53.502;49.248;2023-09-19T05:50:10;5.20;;;4.03;;
69319;SDS011;56467;53.502;49.248;2023-09-19T05:52:36;6.07;;;3.90;;
69319;SDS011;56467;53.502;49.248;2023-09-19T05:55:06;5.35;;;3.80;;
69319;SDS011;56467;53.502;49.248;2023-09-19T05:57:36;5.63;;;3.88;;
69319;SDS011;56467;53.502;49.248;2023-09-19T06:00:04;5.63;;;3.95;;
69319;SDS011;56467;53.502;49.248;2023-09-19T06:02:36;5.93;;;4.05;;
69319;SDS011;56467;53.502;49.248;2023-09-19T06:05:10;4.80;;;3.67;;
69319;SDS011;56467;53.502;49.248;2023-09-19T06:07:36;5.05;;;3.65;;
69319;SDS011;56467;53.502;49.248;2023-09-19T06:10:05;4.78;;;3.40;;
69319;SDS011;56467;53.502;49.248;2023-09-19T06:12:41;4.78;;;3.53;;
69319;SDS011;56467;53.502;49.248;2023-09-19T06:15:11;5.70;;;3.50;;
69319;SDS011;56467;53.502;49.248;2023-09-19T06:17:41;5.63;;;3.95;;
69319;SDS011;56467;53.502;49.248;2023-09-19T06:20:30;5.38;;;3.58;;
69319;SDS011;56467;53.502;49.248;2023-09-19T06:22:56;5.40;;;3.60;;
69319;SDS011;56467;53.502;49.248;2023-09-19T06:25:22;6.78;;;3.65;;
69319;SDS011;56467;53.502;49.248;2023-09-19T06:27:48;4.82;;;3.50;;
69319;SDS011;56467;53.502;49.248;2023-09-19T06:30:17;5.63;;;3.45;;
69319;SDS011;56467;53.502;49.248;2023-09-19T06:32:43;4.78;;;3.40;;
69319;SDS011;56467;53.502;49.248;2023-09-19T06:35:09;4.20;;;3.30;;
69319;SDS011;56467;53.502;49.248;2023-09-19T06:37:39;4.85;;;3.40;;
69319;SDS011;56467;53.502;49.248;2023-09-19T06:40:07;4.63;;;3.38;;
69319;SDS011;56467;53.502;49.248;2023-09-19T06:42:45;4.40;;;3.20;;
69319;SDS011;56467;53.502;49.248;2023-09-19T06:45:13;5.00;;;3.15;;
69319;SDS011;56467;53.502;49.248;2023-09-19T06:47:47;5.13;;;3.83;;
69319;SDS011;56467;53.502;49.248;2023-09-19T06:50:15;4.97;;;3.10;;
69319;SDS011;56467;53.502;49.248;2023-09-19T06:52:47;4.47;;;3.22;;
69319;SDS011;56467;53.502;49.248;2023-09-19T06:55:15;4.78;;;3.08;;
69319;SDS011;56467;53.502;49.248;2023-09-19T06:57:41;4.72;;;3.05;;
69319;SDS011;56467;53.502;49.248;2023-09-19T07:00:11;3.88;;;2.90;;
69319;SDS011;56467;53.502;49.248;2023-09-19T07:02:44;4.50;;;3.20;;
69319;SDS011;56467;53.502;49.248;2023-09-19T07:05:10;4.40;;;3.30;;
69319;SDS011;56467;53.502;49.248;2023-09-19T07:07:35;5.03;;;3.10;;
69319;SDS011;56467;53.502;49.248;2023-09-19T07:10:02;4.00;;;3.08;;
69319;SDS011;56467;53.502;49.248;2023-09-19T07:12:30;4.18;;;2.85;;
69319;SDS011;56467;53.502;49.248;2023-09-19T07:14:58;5.22;;;3.20;;
69319;SDS011;56467;53.502;49.248;2023-09-19T07:17:23;4.22;;;3.20;;
69319;SDS011;56467;53.502;49.248;2023-09-19T07:19:49;4.95;;;3.22;;
69319;SDS011;56467;53.502;49.248;2023-09-19T07:22:15;4.25;;;2.80;;
69319;SDS011;56467;53.502;49.248;2023-09-19T07:24:41;4.25;;;3.30;;
69319;SDS011;56467;53.502;49.248;2023-09-19T07:27:07;5.30;;;2.95;;
69319;SDS011;56467;53.502;49.248;2023-09-19T07:29:34;4.75;;;3.30;;
69319;SDS011;56467;53.502;49.248;2023-09-19T07:31:59;4.63;;;3.15;;
69319;SDS011;56467;53.502;49.248;2023-09-19T07:34:25;4.45;;;2.80;;
69319;SDS011;56467;53.502;49.248;2023-09-19T07:36:51;4.50;;;3.00;;
69319;SDS011;56467;53.502;49.248;2023-09-19T07:39:16;4.65;;;3.05;;
69319;SDS011;56467;53.502;49.248;2023-09-19T07:41:42;3.40;;;2.90;;
69319;SDS011;56467;53.502;49.248;2023-09-19T07:44:08;5.53;;;3.00;;
69319;SDS011;56467;53.502;49.248;2023-09-19T07:46:35;3.78;;;2.92;;
69319;SDS011;56467;53.502;49.248;2023-09-19T07:49:01;4.13;;;3.05;;
69319;SDS011;56467;53.502;49.248;2023-09-19T07:51:27;4.43;;;2.95;;
69319;SDS011;56467;53.502;49.248;2023-09-19T07:53:52;3.88;;;2.70;;
69319;SDS011;56467;53.502;49.248;2023-09-19T07:56:19;3.53;;;2.80;;
69319;SDS011;56467;53.502;49.248;2023-09-19T07:58:45;4.35;;;2.55;;
69319;SDS011;56467;53.502;49.248;2023-09-19T08:01:12;3.53;;;2.78;;
69319;SDS011;56467;53.502;49.248;2023-09-19T08:03:39;3.33;;;2.58;;
69319;SDS011;56467;53.502;49.248;2023-09-19T08:06:08;3.70;;;2.80;;
69319;SDS011;56467;53.502;49.248;2023-09-19T08:08:35;3.92;;;2.65;;
69319;SDS011;56467;53.502;49.248;2023-09-19T08:11:04;3.58;;;2.60;;
69319;SDS011;56467;53.502;49.248;2023-09-19T08:13:46;3.30;;;2.50;;
69319;SDS011;56467;53.502;49.248;2023-09-19T08:16:14;2.90;;;2.53;;
69319;SDS011;56467;53.502;49.248;2023-09-19T08:18:41;4.95;;;2.72;;
69319;SDS011;56467;53.502;49.248;2023-09-19T08:21:07;4.03;;;2.60;;
69319;SDS011;56467;53.502;49.248;2023-09-19T08:23:35;3.50;;;2.63;;
69319;SDS011;56467;53.502;49.248;2023-09-19T08:26:04;3.58;;;2.85;;
69319;SDS011;56467;53.502;49.248;2023-09-19T08:28:33;2.83;;;2.45;;
69319;SDS011;56467;53.502;49.248;2023-09-19T08:31:03;4.45;;;2.50;;
69319;SDS011;56467;53.502;49.248;2023-09-19T08:33:31;4.60;;;2.80;;
69319;SDS011;56467;53.502;49.248;2023-09-19T08:36:01;3.95;;;2.63;;
69319;SDS011;56467;53.502;49.248;2023-09-19T08:38:30;3.42;;;2.30;;
69319;SDS011;56467;53.502;49.248;2023-09-19T08:40:58;5.03;;;2.70;;
69319;SDS011;56467;53.502;49.248;2023-09-19T08:43:25;3.20;;;2.40;;
69319;SDS011;56467;53.502;49.248;2023-09-19T08:45:53;3.40;;;2.40;;
69319;SDS011;56467;53.502;49.248;2023-09-19T08:48:28;3.50;;;2.50;;
69319;SDS011;56467;53.502;49.248;2023-09-19T08:50:56;3.08;;;2.50;;
69319;SDS011;56467;53.502;49.248;2023-09-19T08:56:08;3.30;;;2.30;;
69319;SDS011;56467;53.502;49.248;2023-09-19T08:58:41;3.67;;;2.60;;
69319;SDS011;56467;53.502;49.248;2023-09-19T09:01:14;3.10;;;2.40;;
69319;SDS011;56467;53.502;49.248;2023-09-19T09:03:41;3.10;;;2.42;;
69319;SDS011;56467;53.502;49.248;2023-09-19T09:06:17;3.33;;;2.45;;
69319;SDS011;56467;53.502;49.248;2023-09-19T09:08:45;3.10;;;2.47;;
69319;SDS011;56467;53.502;49.248;2023-09-19T09:11:12;3.33;;;2.35;;
69319;SDS011;56467;53.502;49.248;2023-09-19T09:13:39;2.47;;;2.20;;
69319;SDS011;56467;53.502;49.248;2023-09-19T09:16:06;2.95;;;2.50;;
69319;SDS011;56467;53.502;49.248;2023-09-19T09:18:33;3.85;;;2.50;;
69319;SDS011;56467;53.502;49.248;2023-09-19T09:20:59;2.63;;;2.20;;
69319;SDS011;56467;53.502;49.248;2023-09-19T09:23:26;3.00;;;2.20;;
69319;SDS011;56467;53.502;49.248;2023-09-19T09:25:55;3.10;;;2.45;;
69319;SDS011;56467;53.502;49.248;2023-09-19T09:28:25;2.85;;;2.25;;
69319;SDS011;56467;53.502;49.248;2023-09-19T09:30:53;3.67;;;2.33;;
69319;SDS011;56467;53.502;49.248;2023-09-19T09:33:19;3.03;;;2.40;;
69319;SDS011;56467;53.502;49.248;2023-09-19T09:35:50;3.42;;;2.55;;
69319;SDS011;56467;53.502;49.248;2023-09-19T09:38:22;4.05;;;2.17;;
69319;SDS011;56467;53.502;49.248;2023-09-19T09:40:53;2.90;;;2.00;;
69319;SDS011;56467;53.502;49.248;2023-09-19T09:46:10;2.95;;;2.30;;
69319;SDS011;56467;53.502;49.248;2023-09-19T09:48:47;2.95;;;2.30;;
69319;SDS011;56467;53.502;49.248;2023-09-19T09:54:26;2.90;;;2.15;;
69319;SDS011;56467;53.502;49.248;2023-09-19T09:57:01;3.42;;;2.42;;
69319;SDS011;56467;53.502;49.248;2023-09-19T09:59:54;2.83;;;2.25;;
69319;SDS011;56467;53.502;49.248;2023-09-19T10:02:40;3.10;;;2.17;;
69319;SDS011;56467;53.502;49.248;2023-09-19T10:05:17;2.70;;;2.10;;
69319;SDS011;56467;53.502;49.248;2023-09-19T10:07:53;2.33;;;2.13;;
69319;SDS011;56467;53.502;49.248;2023-09-19T10:10:34;2.83;;;2.20;;
69319;SDS011;56467;53.502;49.248;2023-09-19T10:13:18;2.10;;;1.90;;
69319;SDS011;56467;53.502;49.248;2023-09-19T10:15:49;2.17;;;1.98;;
69319;SDS011;56467;53.502;49.248;2023-09-19T10:18:23;2.88;;;2.20;;
69319;SDS011;56467;53.502;49.248;2023-09-19T10:20:51;2.47;;;1.73;;
69319;SDS011;56467;53.502;49.248;2023-09-19T10:23:18;3.17;;;2.10;;
69319;SDS011;56467;53.502;49.248;2023-09-19T10:25:48;2.53;;;2.10;;
69319;SDS011;56467;53.502;49.248;2023-09-19T10:28:15;2.47;;;2.20;;
69319;SDS011;56467;53.502;49.248;2023-09-19T10:30:47;3.20;;;2.22;;
69319;SDS011;56467;53.502;49.248;2023-09-19T10:33:16;2.63;;;2.20;;
69319;SDS011;56467;53.502;49.248;2023-09-19T10:35:51;2.70;;;1.80;;
69319;SDS011;56467;53.502;49.248;2023-09-19T10:38:23;2.30;;;1.80;;
69319;SDS011;56467;53.502;49.248;2023-09-19T10:40:53;3.95;;;2.25;;
69319;SDS011;56467;53.502;49.248;2023-09-19T10:43:20;2.38;;;2.00;;
69319;SDS011;56467;53.502;49.248;2023-09-19T10:45:47;2.03;;;1.75;;
69319;SDS011;56467;53.502;49.248;2023-09-19T10:48:20;2.30;;;2.05;;
69319;SDS011;56467;53.502;49.248;2023-09-19T10:51:05;2.20;;;2.00;;
69319;SDS011;56467;53.502;49.248;2023-09-19T10:56:18;2.65;;;1.90;;
69319;SDS011;56467;53.502;49.248;2023-09-19T10:58:49;2.83;;;2.00;;
69319;SDS011;56467;53.502;49.248;2023-09-19T11:01:16;2.03;;;1.83;;
69319;SDS011;56467;53.502;49.248;2023-09-19T11:03:42;1.98;;;1.77;;
69319;SDS011;56467;53.502;49.248;2023-09-19T11:06:15;2.75;;;2.00;;
69319;SDS011;56467;53.502;49.248;2023-09-19T11:08:55;2.88;;;2.08;;
69319;SDS011;56467;53.502;49.248;2023-09-19T11:14:14;3.75;;;2.00;;
69319;SDS011;56467;53.502;49.248;2023-09-19T11:16:41;2.80;;;1.92;;
69319;SDS011;56467;53.502;49.248;2023-09-19T11:30:42;3.05;;;1.90;;
69319;SDS011;56467;53.502;49.248;2023-09-19T11:36:15;2.17;;;1.60;;
69319;SDS011;56467;53.502;49.248;2023-09-19T11:43:47;1.95;;;1.70;;
69319;SDS011;56467;53.502;49.248;2023-09-19T11:46:15;2.13;;;1.70;;
69319;SDS011;56467;53.502;49.248;2023-09-19T11:48:47;2.30;;;1.88;;
69319;SDS011;56467;53.502;49.248;2023-09-19T11:51:15;2.67;;;1.92;;
69319;SDS011;56467;53.502;49.248;2023-09-19T11:53:52;2.17;;;1.63;;
69319;SDS011;56467;53.502;49.248;2023-09-19T11:56:24;2.97;;;1.70;;
69319;SDS011;56467;53.502;49.248;2023-09-19T11:58:53;2.30;;;1.60;;
69319;SDS011;56467;53.502;49.248;2023-09-19T12:01:21;2.15;;;1.80;;
69319;SDS011;56467;53.502;49.248;2023-09-19T12:03:54;2.75;;;1.70;;
69319;SDS011;56467;53.502;49.248;2023-09-19T12:06:23;2.28;;;1.60;;
69319;SDS011;56467;53.502;49.248;2023-09-19T12:08:49;1.60;;;1.50;;
69319;SDS011;56467;53.502;49.248;2023-09-19T12:11:16;1.92;;;1.58;;
69319;SDS011;56467;53.502;49.248;2023-09-19T12:13:46;1.85;;;1.40;;
69319;SDS011;56467;53.502;49.248;2023-09-19T12:16:17;2.88;;;1.80;;
69319;SDS011;56467;53.502;49.248;2023-09-19T12:18:47;2.25;;;1.75;;
69319;SDS011;56467;53.502;49.248;2023-09-19T12:21:33;2.10;;;1.80;;
69319;SDS011;56467;53.502;49.248;2023-09-19T12:24:07;2.33;;;1.70;;
69319;SDS011;56467;53.502;49.248;2023-09-19T12:26:47;2.55;;;1.90;;
69319;SDS011;56467;53.502;49.248;2023-09-19T12:29:13;2.88;;;2.10;;
69319;SDS011;56467;53.502;49.248;2023-09-19T12:31:55;2.33;;;1.70;;
69319;SDS011;56467;53.502;49.248;2023-09-19T12:34:25;4.00;;;2.15;;
69319;SDS011;56467;53.502;49.248;2023-09-19T12:37:05;2.92;;;1.88;;
69319;SDS011;56467;53.502;49.248;2023-09-19T12:39:40;3.13;;;1.95;;
69319;SDS011;56467;53.502;49.248;2023-09-19T12:42:14;2.65;;;1.98;;
69319;SDS011;56467;53.502;49.248;2023-09-19T12:44:44;2.70;;;2.00;;
69319;SDS011;56467;53.502;49.248;2023-09-19T12:47:13;2.95;;;2.10;;
69319;SDS011;56467;53.502;49.248;2023-09-19T12:52:51;3.10;;;2.13;;
69319;SDS011;56467;53.502;49.248;2023-09-19T12:55:27;3.42;;;2.30;;
69319;SDS011;56467;53.502;49.248;2023-09-19T12:58:13;4.47;;;2.20;;
69319;SDS011;56467;53.502;49.248;2023-09-19T13:00:44;3.72;;;2.28;;
69319;SDS011;56467;53.502;49.248;2023-09-19T13:05:59;5.10;;;2.30;;
69319;SDS011;56467;53.502;49.248;2023-09-19T13:11:08;3.20;;;2.30;;
69319;SDS011;56467;53.502;49.248;2023-09-19T13:13:38;3.90;;;2.20;;
69319;SDS011;56467;53.502;49.248;2023-09-19T13:16:06;3.60;;;2.42;;
69319;SDS011;56467;53.502;49.248;2023-09-19T13:18:43;2.80;;;2.15;;
69319;SDS011;56467;53.502;49.248;2023-09-19T13:21:11;3.45;;;2.22;;
69319;SDS011;56467;53.502;49.248;2023-09-19T13:23:43;3.03;;;2.25;;
69319;SDS011;56467;53.502;49.248;2023-09-19T13:26:11;3.47;;;2.30;;
69319;SDS011;56467;53.502;49.248;2023-09-19T13:28:37;2.90;;;2.25;;
69319;SDS011;56467;53.502;49.248;2023-09-19T13:31:04;2.90;;;2.20;;
69319;SDS011;56467;53.502;49.248;2023-09-19T13:33:29;4.60;;;2.58;;
69319;SDS011;56467;53.502;49.248;2023-09-19T13:35:55;3.50;;;2.30;;
69319;SDS011;56467;53.502;49.248;2023-09-19T13:38:22;3.80;;;2.17;;
69319;SDS011;56467;53.502;49.248;2023-09-19T13:40:48;2.78;;;2.20;;
69319;SDS011;56467;53.502;49.248;2023-09-19T13:43:14;3.60;;;2.30;;
69319;SDS011;56467;53.502;49.248;2023-09-19T13:45:41;3.63;;;2.30;;
69319;SDS011;56467;53.502;49.248;2023-09-19T13:48:07;3.40;;;2.17;;
69319;SDS011;56467;53.502;49.248;2023-09-19T13:50:36;3.92;;;2.25;;
69319;SDS011;56467;53.502;49.248;2023-09-19T13:53:07;2.80;;;2.05;;
69319;SDS011;56467;53.502;49.248;2023-09-19T13:55:33;3.08;;;2.15;;
69319;SDS011;56467;53.502;49.248;2023-09-19T13:57:58;3.45;;;1.92;;
69319;SDS011;56467;53.502;49.248;2023-09-19T14:00:25;3.22;;;2.22;;
69319;SDS011;56467;53.502;49.248;2023-09-19T14:02:52;2.95;;;2.00;;
69319;SDS011;56467;53.502;49.248;2023-09-19T14:05:18;3.45;;;2.17;;
69319;SDS011;56467;53.502;49.248;2023-09-19T14:07:45;3.47;;;2.10;;
69319;SDS011;56467;53.502;49.248;2023-09-19T14:10:11;3.58;;;2.10;;
69319;SDS011;56467;53.502;49.248;2023-09-19T14:12:38;4.00;;;2.15;;
69319;SDS011;56467;53.502;49.248;2023-09-19T14:15:06;2.70;;;1.95;;
69319;SDS011;56467;53.502;49.248;2023-09-19T14:17:33;3.17;;;2.35;;
69319;SDS011;56467;53.502;49.248;2023-09-19T14:19:59;3.63;;;2.10;;
69319;SDS011;56467;53.502;49.248;2023-09-19T14:22:25;3.75;;;2.10;;
69319;SDS011;56467;53.502;49.248;2023-09-19T14:24:50;3.63;;;2.13;;
69319;SDS011;56467;53.502;49.248;2023-09-19T14:27:17;3.78;;;2.08;;
69319;SDS011;56467;53.502;49.248;2023-09-19T14:29:42;3.58;;;2.03;;
69319;SDS011;56467;53.502;49.248;2023-09-19T14:32:08;3.40;;;2.17;;
69319;SDS011;56467;53.502;49.248;2023-09-19T14:34:34;3.28;;;2.30;;
69319;SDS011;56467;53.502;49.248;2023-09-19T14:37:01;4.00;;;2.15;;
69319;SDS011;56467;53.502;49.248;2023-09-19T14:39:27;2.65;;;2.05;;
69319;SDS011;56467;53.502;49.248;2023-09-19T14:41:53;3.83;;;2.20;;
69319;SDS011;56467;53.502;49.248;2023-09-19T14:44:19;4.70;;;2.20;;
69319;SDS011;56467;53.502;49.248;2023-09-19T14:46:45;2.92;;;1.95;;
69319;SDS011;56467;53.502;49.248;2023-09-19T14:49:11;3.35;;;2.22;;
69319;SDS011;56467;53.502;49.248;2023-09-19T14:51:37;3.78;;;2.03;;
69319;SDS011;56467;53.502;49.248;2023-09-19T14:54:05;3.97;;;2.15;;
69319;SDS011;56467;53.502;49.248;2023-09-19T14:56:32;2.65;;;2.00;;
69319;SDS011;56467;53.502;49.248;2023-09-19T14:58:58;2.72;;;2.08;;
69319;SDS011;56467;53.502;49.248;2023-09-19T15:01:24;3.13;;;1.92;;
69319;SDS011;56467;53.502;49.248;2023-09-19T15:03:50;3.53;;;2.03;;
69319;SDS011;56467;53.502;49.248;2023-09-19T15:06:15;3.45;;;2.40;;
69319;SDS011;56467;53.502;49.248;2023-09-19T15:08:45;4.20;;;2.13;;
69319;SDS011;56467;53.502;49.248;2023-09-19T15:11:15;6.05;;;2.20;;
69319;SDS011;56467;53.502;49.248;2023-09-19T15:16:11;4.10;;;2.05;;
69319;SDS011;56467;53.502;49.248;2023-09-19T15:18:38;5.50;;;2.30;;
69319;SDS011;56467;53.502;49.248;2023-09-19T15:21:09;4.85;;;2.20;;
69319;SDS011;56467;53.502;49.248;2023-09-19T15:23:36;3.83;;;2.30;;
69319;SDS011;56467;53.502;49.248;2023-09-19T15:26:10;4.25;;;2.20;;
69319;SDS011;56467;53.502;49.248;2023-09-19T15:28:37;5.18;;;2.60;;
69319;SDS011;56467;53.502;49.248;2023-09-19T15:31:04;4.28;;;2.38;;
69319;SDS011;56467;53.502;49.248;2023-09-19T15:33:31;3.75;;;2.20;;
69319;SDS011;56467;53.502;49.248;2023-09-19T15:38:27;4.28;;;2.40;;
69319;SDS011;56467;53.502;49.248;2023-09-19T15:40:53;3.50;;;2.25;;
69319;SDS011;56467;53.502;49.248;2023-09-19T15:43:20;3.42;;;2.30;;
69319;SDS011;56467;53.502;49.248;2023-09-19T15:45:47;5.25;;;2.58;;
69319;SDS011;56467;53.502;49.248;2023-09-19T15:48:16;4.32;;;2.25;;
69319;SDS011;56467;53.502;49.248;2023-09-19T15:50:43;4.35;;;2.50;;
69319;SDS011;56467;53.502;49.248;2023-09-19T15:53:09;4.20;;;2.70;;